createdAt,value
2019-04-04T00:00:58.296Z,99253.81
2019-04-04T00:03:26.875Z,99235.47
2019-04-04T00:06:00.055Z,99235.47
2019-04-04T00:08:30.898Z,99242.52
2019-04-04T00:10:59.462Z,99242.52
2019-04-04T00:13:28.384Z,99245.52
2019-04-04T00:15:56.936Z,99259.81
2019-04-04T00:18:27.456Z,99259.81
2019-04-04T00:21:02.521Z,99271.95
2019-04-04T00:23:33.628Z,99269.48
2019-04-04T00:26:02.361Z,99277.73
2019-04-04T00:28:31.476Z,99276.89
2019-04-04T00:31:01.411Z,99268.09
2019-04-04T00:33:32.027Z,99278.72
2019-04-04T00:36:04.949Z,99265.30
2019-04-04T00:38:38.647Z,99264.43
2019-04-04T00:41:09.237Z,99270.84
2019-04-04T00:43:39.482Z,99273.47
2019-04-04T00:46:30.855Z,99268.92
2019-04-04T00:49:04.926Z,99245.44
2019-04-04T00:51:40.869Z,99234.08
2019-04-04T00:54:09.468Z,99216.69
2019-04-04T00:56:38.031Z,99209.95
2019-04-04T00:59:07.027Z,99208.48
2019-04-04T01:01:36.335Z,99208.56
2019-04-04T01:04:06.736Z,99207.02
2019-04-04T01:06:36.757Z,99216.52
2019-04-04T01:09:11.741Z,99233.13
2019-04-04T01:11:37.823Z,99225.64
2019-04-04T01:14:06.913Z,99213.98
2019-04-04T01:16:37.670Z,99221.86
2019-04-04T01:19:09.966Z,99213.73
2019-04-04T01:21:42.833Z,99200.84
2019-04-04T01:24:14.893Z,99205.94
2019-04-04T01:26:43.449Z,99196.42
2019-04-04T01:29:14.022Z,99198.66
2019-04-04T01:31:46.015Z,99187.23
2019-04-04T01:34:14.757Z,99171.06
2019-04-04T01:36:47.384Z,99182.66
2019-04-04T01:39:19.314Z,99188.86
2019-04-04T01:41:53.181Z,99211.23
2019-04-04T01:44:22.115Z,99201.05
2019-04-04T01:46:52.331Z,99190.33
2019-04-04T01:49:23.621Z,99184.59
2019-04-04T01:51:52.539Z,99198.45
2019-04-04T01:54:21.089Z,99202.75
2019-04-04T01:56:51.558Z,99186.23
2019-04-04T01:59:20.359Z,99186.23
2019-04-04T02:01:52.304Z,99183.89
2019-04-04T02:04:22.947Z,99171.31
2019-04-04T02:06:53.137Z,99171.83
2019-04-04T02:09:23.918Z,99179.95
2019-04-04T02:11:53.163Z,99178.01
2019-04-04T02:14:23.123Z,99193.92
2019-04-04T02:16:52.173Z,99205.11
2019-04-04T02:19:24.584Z,99207.38
2019-04-04T02:21:59.809Z,99195.72
2019-04-04T02:24:29.839Z,99210.95
2019-04-04T02:27:00.272Z,99218.30
2019-04-04T02:29:29.214Z,99210.44
2019-04-04T02:32:02.328Z,99211.59
2019-04-04T02:34:31.462Z,99221.38
2019-04-04T02:37:02.400Z,99221.88
2019-04-04T02:39:35.079Z,99206.59
2019-04-04T02:42:03.182Z,99206.72
2019-04-04T02:44:33.015Z,99204.28
2019-04-04T02:47:02.035Z,99195.06
2019-04-04T02:49:37.003Z,99203.77
2019-04-04T02:52:07.869Z,99205.16
2019-04-04T02:54:39.993Z,99204.77
2019-04-04T02:57:09.645Z,99200.06
2019-04-04T02:59:40.790Z,99200.06
2019-04-04T03:02:09.744Z,99201.89
2019-04-04T03:04:45.888Z,99178.66
2019-04-04T03:07:13.591Z,99172.83
2019-04-04T03:09:43.792Z,99172.34
2019-04-04T03:12:16.493Z,99160.53
2019-04-04T03:14:50.262Z,99144.48
2019-04-04T03:17:17.627Z,99162.34
2019-04-04T03:19:47.836Z,99157.02
2019-04-04T03:22:18.808Z,99158.25
2019-04-04T03:24:47.373Z,99164.64
2019-04-04T03:27:19.469Z,99158.73
2019-04-04T03:29:49.886Z,99130.95
2019-04-04T03:32:18.993Z,99124.07
2019-04-04T03:34:50.027Z,99115.56
2019-04-04T03:37:23.225Z,99113.64
2019-04-04T03:39:53.289Z,99127.19
2019-04-04T03:42:25.188Z,99147.44
2019-04-04T03:44:55.722Z,99153.08
2019-04-04T03:47:24.771Z,99150.93
2019-04-04T03:49:57.707Z,99156.78
2019-04-04T03:52:24.943Z,99163.42
2019-04-04T03:54:56.864Z,99166.66
2019-04-04T03:57:27.122Z,99169.90
2019-04-04T03:59:59.093Z,99168.09
2019-04-04T04:02:29.840Z,99173.29
2019-04-04T04:05:02.001Z,99178.53
2019-04-04T04:07:35.857Z,99170.09
2019-04-04T04:10:04.200Z,99165.98
2019-04-04T04:12:36.712Z,99166.34
2019-04-04T04:15:05.722Z,99174.09
2019-04-04T04:17:38.237Z,99166.34
2019-04-04T04:20:26.144Z,99166.74
2019-04-04T04:22:54.715Z,99171.48
2019-04-04T04:25:23.637Z,99173.38
2019-04-04T04:27:52.571Z,99184.84
2019-04-04T04:30:22.036Z,99181.05
2019-04-04T04:32:55.721Z,99180.91
2019-04-04T04:35:21.695Z,99169.26
2019-04-04T04:37:53.344Z,99157.34
2019-04-04T04:40:21.699Z,99144.83
2019-04-04T04:42:59.710Z,99140.75
2019-04-04T04:45:26.863Z,99136.30
2019-04-04T04:48:00.028Z,99129.17
2019-04-04T04:50:33.659Z,99123.86
2019-04-04T04:53:01.649Z,99117.16
2019-04-04T04:55:32.207Z,99114.02
2019-04-04T04:58:02.720Z,99098.98
2019-04-04T05:00:31.578Z,99096.69
2019-04-04T05:03:01.864Z,99113.21
2019-04-04T05:05:32.304Z,99128.14
2019-04-04T05:08:01.248Z,99129.86
2019-04-04T05:10:31.301Z,99131.16
2019-04-04T05:12:59.862Z,99146.90
2019-04-04T05:15:34.029Z,99157.16
2019-04-04T05:18:06.630Z,99167.66
2019-04-04T05:20:38.199Z,99165.47
2019-04-04T05:23:06.773Z,99154.94
2019-04-04T05:25:35.345Z,99154.86
2019-04-04T05:28:06.191Z,99153.40
2019-04-04T05:30:39.825Z,99162.98
2019-04-04T05:33:10.078Z,99159.55
2019-04-04T05:35:39.412Z,99139.62
2019-04-04T05:38:12.099Z,99142.56
2019-04-04T05:40:39.024Z,99153.25
2019-04-04T05:43:07.639Z,99147.09
2019-04-04T05:45:38.741Z,99131.45
2019-04-04T05:48:08.679Z,99118.58
2019-04-04T05:50:37.449Z,99127.00
2019-04-04T05:53:06.394Z,99137.09
2019-04-04T05:55:41.857Z,99116.43
2019-04-04T05:58:11.339Z,99105.03
2019-04-04T06:00:44.102Z,99120.13
2019-04-04T06:03:15.284Z,99119.38
2019-04-04T06:05:45.062Z,99111.52
2019-04-04T06:08:17.010Z,99085.67
2019-04-04T06:10:50.016Z,99122.08
2019-04-04T06:13:18.277Z,99124.22
2019-04-04T06:16:09.283Z,99124.22
2019-04-04T06:18:40.999Z,99127.03
2019-04-04T06:21:12.515Z,99139.97
2019-04-04T06:23:42.781Z,99163.77
2019-04-04T06:26:13.022Z,99153.50
2019-04-04T06:28:46.304Z,99144.95
2019-04-04T06:31:18.595Z,99155.72
2019-04-04T06:33:47.549Z,99176.33
2019-04-04T06:36:20.867Z,99176.89
2019-04-04T06:38:54.574Z,99171.39
2019-04-04T06:41:24.100Z,99172.86
2019-04-04T06:43:53.296Z,99185.12
2019-04-04T06:46:22.852Z,99185.72
2019-04-04T06:48:59.099Z,99160.62
2019-04-04T06:51:29.379Z,99157.31
2019-04-04T06:53:59.729Z,99160.09
2019-04-04T06:56:32.536Z,99161.65
2019-04-04T06:59:01.219Z,99170.77
2019-04-04T07:01:31.670Z,99174.98
2019-04-04T07:04:02.779Z,99184.61
2019-04-04T07:06:31.871Z,99186.16
2019-04-04T07:09:04.083Z,99180.55
2019-04-04T07:11:33.001Z,99190.89
2019-04-04T07:14:05.392Z,99196.59
2019-04-04T07:16:36.821Z,99205.82
2019-04-04T07:19:08.139Z,99204.83
2019-04-04T07:21:38.745Z,99194.33
2019-04-04T07:24:08.252Z,99190.64
2019-04-04T07:26:40.821Z,99178.11
2019-04-04T07:29:11.058Z,99164.88
2019-04-04T07:31:43.320Z,99167.30
2019-04-04T07:34:14.232Z,99177.02
2019-04-04T07:36:44.396Z,99182.12
2019-04-04T07:39:14.292Z,99191.25
2019-04-04T07:41:44.991Z,99198.45
2019-04-04T07:44:17.327Z,99193.05
2019-04-04T07:46:46.283Z,99193.87
2019-04-04T07:49:16.852Z,99185.39
2019-04-04T07:51:45.445Z,99179.03
2019-04-04T07:54:14.663Z,99178.34
2019-04-04T07:56:48.742Z,99172.38
2019-04-04T07:59:16.868Z,99176.17
2019-04-04T08:01:51.361Z,99158.88
2019-04-04T08:04:18.689Z,99152.95
2019-04-04T08:06:49.197Z,99157.05
2019-04-04T08:09:19.159Z,99153.94
2019-04-04T08:11:48.706Z,99152.81
2019-04-04T08:14:18.925Z,99160.89
2019-04-04T08:16:47.856Z,99170.09
2019-04-04T08:19:18.532Z,99176.66
2019-04-04T08:21:47.359Z,99174.98
2019-04-04T08:24:17.683Z,99174.39
2019-04-04T08:26:48.708Z,99177.02
2019-04-04T08:29:23.327Z,99168.66
2019-04-04T08:31:51.900Z,99154.70
2019-04-04T08:34:22.260Z,99164.08
2019-04-04T08:36:51.126Z,99163.66
2019-04-04T08:39:21.279Z,99140.41
2019-04-04T08:41:52.479Z,99140.41
2019-04-04T08:44:24.269Z,99163.48
2019-04-04T08:46:55.606Z,99166.73
2019-04-04T08:49:29.128Z,99158.17
2019-04-04T08:52:00.832Z,99160.52
2019-04-04T08:54:31.101Z,99165.23
2019-04-04T08:57:00.311Z,99169.19
2019-04-04T08:59:28.957Z,99162.87
2019-04-04T09:01:57.874Z,99151.94
2019-04-04T09:04:26.809Z,99151.94
2019-04-04T09:07:03.035Z,99151.24
2019-04-04T09:09:34.787Z,99150.82
2019-04-04T09:12:05.296Z,99147.66
2019-04-04T09:14:35.784Z,99147.66
2019-04-04T09:17:04.739Z,99152.84
2019-04-04T09:19:33.331Z,99153.23
2019-04-04T09:22:01.892Z,99162.22
2019-04-04T09:24:37.420Z,99154.16
2019-04-04T09:27:05.956Z,99149.80
2019-04-04T09:29:36.308Z,99149.80
2019-04-04T09:32:08.346Z,99165.28
2019-04-04T09:34:37.103Z,99171.20
2019-04-04T09:37:08.721Z,99172.54
2019-04-04T09:39:37.907Z,99175.08
2019-04-04T09:42:07.686Z,99177.86
2019-04-04T09:44:40.532Z,99176.88
2019-04-04T09:47:10.458Z,99175.89
2019-04-04T09:49:39.073Z,99180.33
2019-04-04T09:52:07.988Z,99189.19
2019-04-04T09:54:36.876Z,99190.02
2019-04-04T09:57:05.620Z,99174.34
2019-04-04T09:59:34.569Z,99185.20
2019-04-04T10:02:03.493Z,99180.31
2019-04-04T10:04:32.433Z,99171.91
2019-04-04T10:07:01.159Z,99178.51
2019-04-04T10:09:30.075Z,99172.05
2019-04-04T10:12:03.346Z,99161.86
2019-04-04T10:14:32.101Z,99162.81
2019-04-04T10:17:01.002Z,99152.02
2019-04-04T10:19:29.901Z,99164.63
2019-04-04T10:21:59.354Z,99162.08
2019-04-04T10:24:32.960Z,99169.16
2019-04-04T10:27:01.168Z,99143.64
2019-04-04T10:29:31.073Z,99153.14
2019-04-04T10:31:59.806Z,99153.14
2019-04-04T10:34:29.085Z,99154.27
2019-04-04T10:36:59.017Z,99145.22
2019-04-04T10:39:30.125Z,99151.38
2019-04-04T10:41:58.908Z,99156.30
2019-04-04T10:44:29.308Z,99158.80
2019-04-04T10:46:58.256Z,99151.72
2019-04-04T10:49:28.265Z,99153.58
2019-04-04T10:51:58.427Z,99153.67
2019-04-04T10:54:29.673Z,99143.96
2019-04-04T10:56:59.816Z,99139.64
2019-04-04T10:59:33.961Z,99138.48
2019-04-04T11:02:03.050Z,99144.55
2019-04-04T11:04:31.920Z,99153.39
2019-04-04T11:07:02.052Z,99150.00
2019-04-04T11:09:41.974Z,99142.55
2019-04-04T11:12:06.760Z,99150.00
2019-04-04T11:14:35.706Z,99154.15
2019-04-04T11:17:05.000Z,99160.08
2019-04-04T11:19:36.970Z,99160.47
2019-04-04T11:22:05.893Z,99161.05
2019-04-04T11:24:34.853Z,99157.29
2019-04-04T11:27:03.773Z,99155.97
2019-04-04T11:29:33.127Z,99158.03
2019-04-04T11:32:01.700Z,99155.42
2019-04-04T11:34:35.038Z,99151.43
2019-04-04T11:37:05.170Z,99148.70
2019-04-04T11:39:37.225Z,99154.65
2019-04-04T11:42:05.837Z,99152.88
2019-04-04T11:44:35.682Z,99143.36
2019-04-04T11:47:04.255Z,99143.36
2019-04-04T11:49:36.575Z,99134.77
2019-04-04T11:52:05.576Z,99141.33
2019-04-04T11:54:58.801Z,99136.53
2019-04-04T11:57:27.569Z,99144.35
2019-04-04T11:59:58.381Z,99144.30
2019-04-04T12:02:32.943Z,99139.95
2019-04-04T12:05:04.705Z,99140.69
2019-04-04T12:07:38.056Z,99143.12
2019-04-04T12:10:08.249Z,99143.12
2019-04-04T12:12:58.541Z,99142.78
2019-04-04T12:15:28.398Z,99142.78
2019-04-04T12:18:01.309Z,99150.34
2019-04-04T12:20:34.406Z,99163.20
2019-04-04T12:23:03.324Z,99177.17
2019-04-04T12:25:32.211Z,99179.13
2019-04-04T12:28:03.730Z,99179.08
2019-04-04T12:30:32.682Z,99180.11
2019-04-04T12:33:02.811Z,99177.91
2019-04-04T12:35:33.557Z,99182.01
2019-04-04T12:38:04.367Z,99180.49
2019-04-04T12:40:32.939Z,99175.66
2019-04-04T12:43:03.597Z,99176.98
2019-04-04T12:45:32.142Z,99177.66
2019-04-04T12:48:02.723Z,99169.55
2019-04-04T12:50:33.379Z,99155.14
2019-04-04T12:53:02.488Z,99163.53
2019-04-04T12:55:32.594Z,99162.56
2019-04-04T12:58:02.834Z,99158.45
2019-04-04T13:00:31.442Z,99153.17
2019-04-04T13:03:00.212Z,99155.80
2019-04-04T13:05:33.833Z,99163.16
2019-04-04T13:08:08.763Z,99152.77
2019-04-04T13:10:37.639Z,99149.85
2019-04-04T13:13:06.649Z,99149.85
2019-04-04T13:15:35.455Z,99144.31
2019-04-04T13:18:04.595Z,99132.22
2019-04-04T13:20:34.767Z,99132.22
2019-04-04T13:23:07.040Z,99143.27
2019-04-04T13:25:38.999Z,99146.84
2019-04-04T13:28:10.851Z,99146.36
2019-04-04T13:30:46.580Z,99141.45
2019-04-04T13:33:17.464Z,99142.41
2019-04-04T13:35:47.886Z,99151.36
2019-04-04T13:38:16.469Z,99164.94
2019-04-04T13:41:04.291Z,99157.60
2019-04-04T13:43:35.840Z,99145.25
2019-04-04T13:46:05.767Z,99159.19
2019-04-04T13:48:34.954Z,99168.70
2019-04-04T13:51:03.558Z,99167.48
2019-04-04T13:53:35.695Z,99159.67
2019-04-04T13:56:05.621Z,99155.52
2019-04-04T13:58:38.310Z,99148.94
2019-04-04T14:01:09.113Z,99156.19
2019-04-04T14:03:37.844Z,99162.20
2019-04-04T14:06:07.339Z,99158.44
2019-04-04T14:08:39.996Z,99166.56
2019-04-04T14:11:11.378Z,99159.19
2019-04-04T14:13:41.632Z,99152.69
2019-04-04T14:16:10.490Z,99167.97
2019-04-04T14:18:44.423Z,99168.62
2019-04-04T14:21:16.565Z,99192.85
2019-04-04T14:23:46.746Z,99192.85
2019-04-04T14:26:15.318Z,99205.77
2019-04-04T14:28:45.469Z,99214.16
2019-04-04T14:31:19.119Z,99219.05
2019-04-04T14:33:47.327Z,99220.62
2019-04-04T14:36:18.399Z,99224.38
2019-04-04T14:38:46.969Z,99240.81
2019-04-04T14:41:17.283Z,99250.53
2019-04-04T14:43:49.806Z,99248.92
2019-04-04T14:46:21.837Z,99242.07
2019-04-04T14:48:52.135Z,99239.34
2019-04-04T14:51:20.745Z,99229.03
2019-04-04T14:53:49.334Z,99214.42
2019-04-04T14:56:18.227Z,99186.16
2019-04-04T14:58:48.486Z,99175.70
2019-04-04T15:01:17.761Z,99185.48
2019-04-04T15:03:49.769Z,99190.77
2019-04-04T15:06:20.486Z,99189.56
2019-04-04T15:08:50.887Z,99177.86
2019-04-04T15:11:24.341Z,99183.90
2019-04-04T15:13:55.260Z,99188.60
2019-04-04T15:16:24.115Z,99201.45
2019-04-04T15:18:55.819Z,99214.06
2019-04-04T15:21:26.427Z,99217.25
2019-04-04T15:23:55.335Z,99226.49
2019-04-04T15:26:26.330Z,99229.32
2019-04-04T15:28:56.767Z,99228.09
2019-04-04T15:31:31.928Z,99234.49
2019-04-04T15:34:01.092Z,99253.90
2019-04-04T15:36:31.955Z,99252.23
2019-04-04T15:39:02.721Z,99253.16
2019-04-04T15:41:37.263Z,99256.83
2019-04-04T15:44:06.402Z,99259.84
2019-04-04T15:46:37.654Z,99258.67
2019-04-04T15:49:10.821Z,99261.69
2019-04-04T15:51:41.373Z,99266.75
2019-04-04T15:54:09.954Z,99268.69
2019-04-04T15:56:39.157Z,99260.22
2019-04-04T15:59:10.100Z,99256.93
2019-04-04T16:01:39.595Z,99259.91
2019-04-04T16:04:11.350Z,99267.28
2019-04-04T16:06:41.704Z,99267.09
2019-04-04T16:09:11.288Z,99268.20
2019-04-04T16:11:49.538Z,99287.98
2019-04-04T16:14:13.564Z,99291.92
2019-04-04T16:16:42.967Z,99302.56
2019-04-04T16:19:13.476Z,99313.20
2019-04-04T16:21:42.396Z,99321.11
2019-04-04T16:24:13.366Z,99319.02
2019-04-04T16:26:41.940Z,99334.30
2019-04-04T16:29:12.460Z,99333.19
2019-04-04T16:31:43.696Z,99342.12
2019-04-04T16:34:14.002Z,99348.83
2019-04-04T16:36:42.796Z,99348.83
2019-04-04T16:39:15.284Z,99348.44
2019-04-04T16:41:47.252Z,99346.82
2019-04-04T16:44:19.159Z,99346.82
2019-04-04T16:46:50.059Z,99351.22
2019-04-04T16:49:20.599Z,99348.41
2019-04-04T16:51:50.539Z,99351.94
2019-04-04T16:54:21.188Z,99351.94
2019-04-04T16:56:51.269Z,99358.95
2019-04-04T16:59:22.559Z,99361.22
2019-04-04T17:01:52.805Z,99361.22
2019-04-04T17:04:23.984Z,99375.98
2019-04-04T17:06:54.900Z,99383.98
2019-04-04T17:09:23.723Z,99379.91
2019-04-04T17:11:57.555Z,99379.06
2019-04-04T17:14:29.884Z,99386.97
2019-04-04T17:17:03.583Z,99383.86
2019-04-04T17:19:34.362Z,99383.86
2019-04-04T17:22:06.008Z,99382.49
2019-04-04T17:24:34.897Z,99402.66
2019-04-04T17:27:04.345Z,99398.14
2019-04-04T17:29:34.510Z,99390.01
2019-04-04T17:32:05.730Z,99383.81
2019-04-04T17:34:35.540Z,99383.81
2019-04-04T17:37:04.278Z,99383.34
2019-04-04T17:39:35.569Z,99372.31
2019-04-04T17:42:08.923Z,99386.37
2019-04-04T17:44:39.039Z,99374.29
2019-04-04T17:47:09.307Z,99366.91
2019-04-04T17:49:40.306Z,99369.94
2019-04-04T17:52:11.637Z,99371.83
2019-04-04T17:54:42.797Z,99366.16
2019-04-04T17:57:11.926Z,99354.74
2019-04-04T17:59:42.916Z,99358.92
2019-04-04T18:02:11.889Z,99358.92
2019-04-04T18:04:48.212Z,99372.09
2019-04-04T18:07:14.729Z,99372.09
2019-04-04T18:09:45.682Z,99365.91
2019-04-04T18:12:17.022Z,99361.50
2019-04-04T18:14:47.612Z,99365.81
2019-04-04T18:17:16.489Z,99365.81
2019-04-04T18:19:45.356Z,99372.53
2019-04-04T18:22:15.608Z,99371.05
2019-04-04T18:24:46.811Z,99369.67
2019-04-04T18:27:17.384Z,99369.67
2019-04-04T18:30:25.868Z,99360.06
2019-04-04T18:32:55.607Z,99379.16
2019-04-04T18:35:28.016Z,99385.44
2019-04-04T18:37:58.625Z,99386.30
2019-04-04T18:40:33.677Z,99393.20
2019-04-04T18:43:04.685Z,99400.59
2019-04-04T18:45:34.746Z,99400.59
2019-04-04T18:48:03.309Z,99412.00
2019-04-04T18:50:32.419Z,99411.69
2019-04-04T18:53:04.232Z,99424.58
2019-04-04T18:55:33.384Z,99429.55
2019-04-04T18:58:08.700Z,99427.35
2019-04-04T19:00:37.911Z,99416.13
2019-04-04T19:03:07.013Z,99422.95
2019-04-04T19:05:36.279Z,99423.48
2019-04-04T19:08:07.100Z,99427.04
2019-04-04T19:10:36.257Z,99421.77
2019-04-04T19:13:10.161Z,99427.84
2019-04-04T19:15:39.077Z,99431.55
2019-04-04T19:18:14.185Z,99436.67
2019-04-04T19:20:45.434Z,99439.30
2019-04-04T19:23:15.728Z,99439.69
2019-04-04T19:25:46.280Z,99445.03
2019-04-04T19:28:16.377Z,99447.04
2019-04-04T19:30:46.615Z,99449.15
2019-04-04T19:33:17.144Z,99456.48
2019-04-04T19:35:49.004Z,99457.11
2019-04-04T19:38:20.977Z,99467.27
2019-04-04T19:40:53.520Z,99470.30
2019-04-04T19:43:27.181Z,99468.27
2019-04-04T19:45:55.714Z,99466.87
2019-04-04T19:48:24.702Z,99474.41
2019-04-04T19:50:57.750Z,99477.34
2019-04-04T19:53:27.006Z,99478.27
2019-04-04T19:55:56.314Z,99481.14
2019-04-04T19:58:29.183Z,99487.33
2019-04-04T20:00:59.516Z,99489.36
2019-04-04T20:03:32.921Z,99479.27
2019-04-04T20:06:02.108Z,99474.22
2019-04-04T20:08:34.105Z,99485.22
2019-04-04T20:11:06.250Z,99486.70
2019-04-04T20:13:35.170Z,99482.75
2019-04-04T20:16:09.036Z,99486.30
2019-04-04T20:18:38.021Z,99485.55
2019-04-04T20:21:06.943Z,99484.75
2019-04-04T20:23:37.587Z,99489.53
2019-04-04T20:26:10.983Z,99494.44
2019-04-04T20:28:42.509Z,99489.33
2019-04-04T20:31:12.830Z,99493.67
2019-04-04T20:33:43.474Z,99503.17
2019-04-04T20:36:14.550Z,99504.58
2019-04-04T20:38:43.961Z,99507.08
2019-04-04T20:41:16.708Z,99501.62
2019-04-04T20:43:46.006Z,99499.07
2019-04-04T20:46:17.771Z,99509.23
2019-04-04T20:48:48.346Z,99509.91
2019-04-04T20:51:20.795Z,99509.91
2019-04-04T20:53:51.017Z,99508.84
2019-04-04T20:56:21.119Z,99506.25
2019-04-04T20:58:51.049Z,99506.41
2019-04-04T21:01:23.517Z,99511.03
2019-04-04T21:03:52.697Z,99517.02
2019-04-04T21:06:26.313Z,99509.87
2019-04-04T21:08:54.280Z,99513.81
2019-04-04T21:11:22.791Z,99509.62
2019-04-04T21:13:56.531Z,99514.13
2019-04-04T21:16:28.443Z,99527.46
2019-04-04T21:19:05.108Z,99532.08
2019-04-04T21:21:37.377Z,99534.63
2019-04-04T21:24:07.665Z,99535.69
2019-04-04T21:26:36.440Z,99540.95
2019-04-04T21:29:09.859Z,99542.00
2019-04-04T21:31:40.806Z,99551.73
2019-04-04T21:34:11.627Z,99550.89
2019-04-04T21:36:42.300Z,99552.95
2019-04-04T21:39:15.637Z,99558.38
2019-04-04T21:41:44.584Z,99561.56
2019-04-04T21:44:15.991Z,99567.08
2019-04-04T21:46:46.749Z,99562.90
2019-04-04T21:49:19.030Z,99562.41
2019-04-04T21:51:49.554Z,99558.38
2019-04-04T21:54:23.175Z,99575.58
2019-04-04T21:56:53.149Z,99580.92
2019-04-04T21:59:22.070Z,99576.97
2019-04-04T22:01:55.601Z,99577.47
2019-04-04T22:04:26.505Z,99581.00
2019-04-04T22:06:55.613Z,99576.80
2019-04-04T22:09:24.590Z,99572.45
2019-04-04T22:11:55.394Z,99574.72
2019-04-04T22:14:24.140Z,99575.83
2019-04-04T22:16:53.112Z,99581.49
2019-04-04T22:19:22.055Z,99587.74
2019-04-04T22:21:52.327Z,99596.27
2019-04-04T22:24:24.319Z,99608.37
2019-04-04T22:26:52.872Z,99604.42
2019-04-04T22:29:24.688Z,99613.36
2019-04-04T22:31:53.664Z,99610.48
2019-04-04T22:34:23.256Z,99618.77
2019-04-04T22:36:54.264Z,99621.99
2019-04-04T22:39:26.276Z,99625.39
2019-04-04T22:41:59.583Z,99620.67
2019-04-04T22:44:35.063Z,99621.27
2019-04-04T22:47:09.912Z,99627.83
2019-04-04T22:49:39.871Z,99625.45
2019-04-04T22:52:09.155Z,99626.34
2019-04-04T22:54:39.670Z,99628.56
2019-04-04T22:57:08.745Z,99637.78
2019-04-04T22:59:38.845Z,99640.88
2019-04-04T23:02:09.256Z,99643.77
2019-04-04T23:04:40.960Z,99643.70
2019-04-04T23:07:11.114Z,99637.92
2019-04-04T23:09:41.439Z,99632.73
2019-04-04T23:12:10.194Z,99643.19
2019-04-04T23:14:48.119Z,99646.51
2019-04-04T23:17:14.741Z,99643.11
2019-04-04T23:19:46.994Z,99638.66
2019-04-04T23:22:16.101Z,99641.98
2019-04-04T23:24:52.987Z,99638.47
2019-04-04T23:27:22.397Z,99627.48
2019-04-04T23:29:51.325Z,99632.63
2019-04-04T23:32:20.062Z,99632.88
2019-04-04T23:34:48.971Z,99619.98
2019-04-04T23:37:17.950Z,99617.69
2019-04-04T23:39:51.347Z,99612.23
2019-04-04T23:42:20.253Z,99620.27
2019-04-04T23:45:01.155Z,99617.79
2019-04-04T23:47:28.075Z,99614.61
2019-04-04T23:49:58.494Z,99611.26
2019-04-04T23:52:27.597Z,99607.78
2019-04-04T23:54:58.309Z,99611.58
2019-04-04T23:57:31.003Z,99609.03
